sensor_id;sensor_type;location;lat;lon;timestamp;pressure;altitude;pressure_sealevel;temperature;humidity
62592;BME280;48659;41.622;2.276;2024-01-11T00:01:36;99882.76;;;4.70;70.94
62592;BME280;48659;41.622;2.276;2024-01-11T00:04:03;99887.14;;;5.90;67.46
62592;BME280;48659;41.622;2.276;2024-01-11T00:06:41;99887.30;;;4.37;69.13
62592;BME280;48659;41.622;2.276;2024-01-11T00:09:09;99889.00;;;6.13;67.02
62592;BME280;48659;41.622;2.276;2024-01-11T00:11:38;99883.02;;;6.06;64.78
62592;BME280;48659;41.622;2.276;2024-01-11T00:14:06;99881.03;;;8.00;61.03
62592;BME280;48659;41.622;2.276;2024-01-11T00:16:35;99875.97;;;7.08;61.83
62592;BME280;48659;41.622;2.276;2024-01-11T00:19:02;99878.28;;;6.69;63.59
62592;BME280;48659;41.622;2.276;2024-01-11T00:21:29;99877.70;;;6.85;62.26
62592;BME280;48659;41.622;2.276;2024-01-11T00:23:57;99878.21;;;6.96;63.01
62592;BME280;48659;41.622;2.276;2024-01-11T00:26:24;99886.27;;;5.57;66.90
62592;BME280;48659;41.622;2.276;2024-01-11T00:28:52;99879.70;;;6.60;64.38
62592;BME280;48659;41.622;2.276;2024-01-11T00:31:19;99877.75;;;6.57;64.46
62592;BME280;48659;41.622;2.276;2024-01-11T00:33:47;99878.60;;;7.18;62.87
62592;BME280;48659;41.622;2.276;2024-01-11T00:36:18;99873.79;;;7.19;62.51
62592;BME280;48659;41.622;2.276;2024-01-11T00:38:45;99870.89;;;7.65;62.03
62592;BME280;48659;41.622;2.276;2024-01-11T00:41:12;99868.85;;;7.27;62.10
62592;BME280;48659;41.622;2.276;2024-01-11T00:43:40;99873.05;;;7.35;59.62
62592;BME280;48659;41.622;2.276;2024-01-11T00:46:07;99874.55;;;6.74;62.01
62592;BME280;48659;41.622;2.276;2024-01-11T00:48:35;99877.91;;;6.01;66.71
62592;BME280;48659;41.622;2.276;2024-01-11T00:51:04;99888.31;;;5.37;69.43
62592;BME280;48659;41.622;2.276;2024-01-11T00:53:37;99880.46;;;4.17;75.94
62592;BME280;48659;41.622;2.276;2024-01-11T00:56:04;99881.76;;;4.66;76.45
62592;BME280;48659;41.622;2.276;2024-01-11T00:58:35;99881.43;;;4.87;77.37
62592;BME280;48659;41.622;2.276;2024-01-11T01:01:02;99879.01;;;4.57;79.78
62592;BME280;48659;41.622;2.276;2024-01-11T01:03:36;99879.54;;;4.06;78.58
62592;BME280;48659;41.622;2.276;2024-01-11T01:06:03;99876.99;;;4.09;79.86
62592;BME280;48659;41.622;2.276;2024-01-11T01:08:31;99876.13;;;3.62;81.06
62592;BME280;48659;41.622;2.276;2024-01-11T01:10:58;99874.90;;;3.57;83.11
62592;BME280;48659;41.622;2.276;2024-01-11T01:13:42;99881.65;;;3.94;83.34
62592;BME280;48659;41.622;2.276;2024-01-11T01:16:09;99888.01;;;4.09;82.89
62592;BME280;48659;41.622;2.276;2024-01-11T01:18:37;99888.88;;;3.09;82.85
62592;BME280;48659;41.622;2.276;2024-01-11T01:21:05;99887.09;;;3.27;82.37
62592;BME280;48659;41.622;2.276;2024-01-11T01:23:33;99888.74;;;3.40;81.37
62592;BME280;48659;41.622;2.276;2024-01-11T01:26:00;99891.04;;;3.34;82.09
62592;BME280;48659;41.622;2.276;2024-01-11T01:28:28;99901.84;;;3.41;82.98
62592;BME280;48659;41.622;2.276;2024-01-11T01:30:56;99912.72;;;3.43;82.77
62592;BME280;48659;41.622;2.276;2024-01-11T01:33:23;99916.14;;;3.65;82.84
62592;BME280;48659;41.622;2.276;2024-01-11T01:35:51;99913.36;;;4.36;79.56
62592;BME280;48659;41.622;2.276;2024-01-11T01:38:19;99914.89;;;3.72;82.03
62592;BME280;48659;41.622;2.276;2024-01-11T01:40:46;99913.67;;;3.94;79.41
62592;BME280;48659;41.622;2.276;2024-01-11T01:43:14;99915.25;;;4.58;78.39
62592;BME280;48659;41.622;2.276;2024-01-11T01:45:41;99920.34;;;3.63;80.00
62592;BME280;48659;41.622;2.276;2024-01-11T01:48:08;99920.35;;;3.58;81.40
62592;BME280;48659;41.622;2.276;2024-01-11T01:50:38;99918.10;;;3.39;80.04
62592;BME280;48659;41.622;2.276;2024-01-11T01:53:05;99911.67;;;3.81;82.04
62592;BME280;48659;41.622;2.276;2024-01-11T01:55:36;99915.06;;;3.63;79.96
62592;BME280;48659;41.622;2.276;2024-01-11T01:58:04;99911.49;;;3.74;79.10
62592;BME280;48659;41.622;2.276;2024-01-11T02:00:32;99911.48;;;3.82;80.67
62592;BME280;48659;41.622;2.276;2024-01-11T02:03:00;99914.18;;;3.47;82.57
62592;BME280;48659;41.622;2.276;2024-01-11T02:05:35;99918.21;;;3.08;81.94
62592;BME280;48659;41.622;2.276;2024-01-11T02:08:04;99914.30;;;3.65;82.95
62592;BME280;48659;41.622;2.276;2024-01-11T02:10:36;99915.99;;;3.07;82.15
62592;BME280;48659;41.622;2.276;2024-01-11T02:13:04;99922.63;;;3.74;79.99
62592;BME280;48659;41.622;2.276;2024-01-11T02:15:36;99923.36;;;3.36;80.12
62592;BME280;48659;41.622;2.276;2024-01-11T02:18:03;99923.18;;;4.07;79.31
62592;BME280;48659;41.622;2.276;2024-01-11T02:20:38;99918.80;;;3.37;77.96
62592;BME280;48659;41.622;2.276;2024-01-11T02:23:17;99918.57;;;4.28;77.63
62592;BME280;48659;41.622;2.276;2024-01-11T02:25:45;99920.43;;;2.56;80.26
62592;BME280;48659;41.622;2.276;2024-01-11T02:28:13;99922.25;;;3.68;79.29
62592;BME280;48659;41.622;2.276;2024-01-11T02:30:41;99921.91;;;2.90;78.48
62592;BME280;48659;41.622;2.276;2024-01-11T02:33:09;99921.56;;;3.71;79.88
62592;BME280;48659;41.622;2.276;2024-01-11T02:35:37;99918.49;;;4.35;77.79
62592;BME280;48659;41.622;2.276;2024-01-11T02:38:05;99914.17;;;4.66;76.89
62592;BME280;48659;41.622;2.276;2024-01-11T02:40:38;99914.20;;;4.23;76.27
62592;BME280;48659;41.622;2.276;2024-01-11T02:43:09;99909.70;;;4.37;77.53
62592;BME280;48659;41.622;2.276;2024-01-11T02:45:42;99915.61;;;4.08;75.53
62592;BME280;48659;41.622;2.276;2024-01-11T02:48:09;99914.85;;;5.51;72.00
62592;BME280;48659;41.622;2.276;2024-01-11T02:50:39;99910.64;;;6.13;67.41
62592;BME280;48659;41.622;2.276;2024-01-11T02:53:06;99914.34;;;7.52;65.25
62592;BME280;48659;41.622;2.276;2024-01-11T02:55:34;99918.54;;;6.71;64.64
62592;BME280;48659;41.622;2.276;2024-01-11T02:58:02;99913.70;;;6.85;66.12
62592;BME280;48659;41.622;2.276;2024-01-11T03:00:36;99913.97;;;7.08;66.16
62592;BME280;48659;41.622;2.276;2024-01-11T03:03:03;99919.87;;;5.79;68.00
62592;BME280;48659;41.622;2.276;2024-01-11T03:05:36;99915.77;;;5.73;67.50
62592;BME280;48659;41.622;2.276;2024-01-11T03:08:04;99914.80;;;7.00;64.62
62592;BME280;48659;41.622;2.276;2024-01-11T03:10:40;99920.97;;;5.79;67.66
62592;BME280;48659;41.622;2.276;2024-01-11T03:13:08;99925.62;;;5.78;68.13
62592;BME280;48659;41.622;2.276;2024-01-11T03:15:36;99928.01;;;5.31;66.08
62592;BME280;48659;41.622;2.276;2024-01-11T03:18:04;99918.44;;;7.32;63.54
62592;BME280;48659;41.622;2.276;2024-01-11T03:20:31;99916.17;;;6.04;64.86
62592;BME280;48659;41.622;2.276;2024-01-11T03:22:58;99911.14;;;5.91;64.47
62592;BME280;48659;41.622;2.276;2024-01-11T03:25:36;99903.93;;;7.70;61.56
62592;BME280;48659;41.622;2.276;2024-01-11T03:28:05;99909.23;;;6.23;64.53
62592;BME280;48659;41.622;2.276;2024-01-11T03:30:35;99909.91;;;6.38;62.83
62592;BME280;48659;41.622;2.276;2024-01-11T03:33:03;99917.75;;;5.84;66.01
62592;BME280;48659;41.622;2.276;2024-01-11T03:35:36;99912.40;;;4.93;66.30
62592;BME280;48659;41.622;2.276;2024-01-11T03:38:04;99909.10;;;7.21;62.40
62592;BME280;48659;41.622;2.276;2024-01-11T03:40:31;99915.07;;;5.72;65.60
62592;BME280;48659;41.622;2.276;2024-01-11T03:42:59;99911.10;;;7.05;62.69
62592;BME280;48659;41.622;2.276;2024-01-11T03:45:38;99910.10;;;7.64;61.24
62592;BME280;48659;41.622;2.276;2024-01-11T03:48:06;99910.50;;;7.67;59.85
62592;BME280;48659;41.622;2.276;2024-01-11T03:50:35;99907.26;;;7.18;61.23
62592;BME280;48659;41.622;2.276;2024-01-11T03:53:03;99908.50;;;5.96;63.89
62592;BME280;48659;41.622;2.276;2024-01-11T03:55:31;99909.01;;;7.88;59.29
62592;BME280;48659;41.622;2.276;2024-01-11T03:57:58;99911.82;;;7.95;57.95
62592;BME280;48659;41.622;2.276;2024-01-11T04:00:25;99914.27;;;7.02;61.74
62592;BME280;48659;41.622;2.276;2024-01-11T04:02:53;99914.53;;;7.42;59.73
62592;BME280;48659;41.622;2.276;2024-01-11T04:05:20;99916.93;;;8.01;58.90
62592;BME280;48659;41.622;2.276;2024-01-11T04:07:47;99914.48;;;7.67;58.87
62592;BME280;48659;41.622;2.276;2024-01-11T04:10:17;99914.21;;;6.51;64.24
62592;BME280;48659;41.622;2.276;2024-01-11T04:12:45;99908.74;;;7.22;61.29
62592;BME280;48659;41.622;2.276;2024-01-11T04:15:12;99912.66;;;7.95;59.91
62592;BME280;48659;41.622;2.276;2024-01-11T04:17:41;99915.65;;;7.04;60.09
62592;BME280;48659;41.622;2.276;2024-01-11T04:20:09;99922.35;;;7.71;59.98
62592;BME280;48659;41.622;2.276;2024-01-11T04:22:36;99927.72;;;7.41;59.19
62592;BME280;48659;41.622;2.276;2024-01-11T04:25:05;99932.65;;;8.23;58.77
62592;BME280;48659;41.622;2.276;2024-01-11T04:27:35;99934.14;;;7.59;58.51
62592;BME280;48659;41.622;2.276;2024-01-11T04:30:04;99929.82;;;8.86;57.48
62592;BME280;48659;41.622;2.276;2024-01-11T04:32:36;99928.39;;;7.98;57.94
62592;BME280;48659;41.622;2.276;2024-01-11T04:35:04;99934.00;;;8.67;57.58
62592;BME280;48659;41.622;2.276;2024-01-11T04:37:36;99935.99;;;7.45;58.15
62592;BME280;48659;41.622;2.276;2024-01-11T04:40:04;99937.67;;;8.05;58.47
62592;BME280;48659;41.622;2.276;2024-01-11T04:42:36;99943.39;;;7.59;58.25
62592;BME280;48659;41.622;2.276;2024-01-11T04:45:04;99945.42;;;8.17;57.32
62592;BME280;48659;41.622;2.276;2024-01-11T04:47:37;99950.62;;;7.96;56.68
62592;BME280;48659;41.622;2.276;2024-01-11T04:50:05;99952.98;;;8.78;56.10
62592;BME280;48659;41.622;2.276;2024-01-11T04:52:33;99954.66;;;7.95;56.80
62592;BME280;48659;41.622;2.276;2024-01-11T04:55:01;99957.14;;;8.30;56.98
62592;BME280;48659;41.622;2.276;2024-01-11T04:57:35;99952.15;;;6.96;59.17
62592;BME280;48659;41.622;2.276;2024-01-11T05:00:04;99950.64;;;7.72;57.60
62592;BME280;48659;41.622;2.276;2024-01-11T05:02:37;99955.68;;;7.55;56.47
62592;BME280;48659;41.622;2.276;2024-01-11T05:05:04;99957.22;;;8.16;55.73
62592;BME280;48659;41.622;2.276;2024-01-11T05:07:32;99966.20;;;8.03;56.35
62592;BME280;48659;41.622;2.276;2024-01-11T05:09:59;99968.23;;;8.16;56.46
62592;BME280;48659;41.622;2.276;2024-01-11T05:12:35;99965.98;;;7.76;57.64
62592;BME280;48659;41.622;2.276;2024-01-11T05:15:03;99964.76;;;7.09;57.65
62592;BME280;48659;41.622;2.276;2024-01-11T05:17:30;99962.48;;;6.65;59.48
62592;BME280;48659;41.622;2.276;2024-01-11T05:19:58;99958.62;;;6.61;58.91
62592;BME280;48659;41.622;2.276;2024-01-11T05:22:26;99965.02;;;7.05;59.72
62592;BME280;48659;41.622;2.276;2024-01-11T05:24:54;99970.03;;;6.67;60.38
62592;BME280;48659;41.622;2.276;2024-01-11T05:27:21;99978.97;;;6.86;61.46
62592;BME280;48659;41.622;2.276;2024-01-11T05:29:48;99984.72;;;6.42;62.19
62592;BME280;48659;41.622;2.276;2024-01-11T05:32:16;99984.00;;;6.88;60.88
62592;BME280;48659;41.622;2.276;2024-01-11T05:34:43;99977.41;;;6.66;59.31
62592;BME280;48659;41.622;2.276;2024-01-11T05:37:11;99976.31;;;8.23;57.85
62592;BME280;48659;41.622;2.276;2024-01-11T05:39:39;99976.28;;;7.40;56.39
62592;BME280;48659;41.622;2.276;2024-01-11T05:42:06;99979.09;;;7.99;56.90
62592;BME280;48659;41.622;2.276;2024-01-11T05:44:33;99979.99;;;7.61;56.14
62592;BME280;48659;41.622;2.276;2024-01-11T05:47:01;99980.49;;;7.99;56.26
62592;BME280;48659;41.622;2.276;2024-01-11T05:49:37;99977.72;;;7.44;56.10
62592;BME280;48659;41.622;2.276;2024-01-11T05:52:05;99980.04;;;7.17;58.63
62592;BME280;48659;41.622;2.276;2024-01-11T05:54:36;99979.59;;;6.98;58.07
62592;BME280;48659;41.622;2.276;2024-01-11T05:57:03;99977.75;;;7.26;58.20
62592;BME280;48659;41.622;2.276;2024-01-11T05:59:37;99978.82;;;5.85;59.97
62592;BME280;48659;41.622;2.276;2024-01-11T06:02:04;99976.81;;;7.17;58.80
62592;BME280;48659;41.622;2.276;2024-01-11T06:04:33;99980.78;;;7.44;57.78
62592;BME280;48659;41.622;2.276;2024-01-11T06:07:00;99983.03;;;7.50;58.15
62592;BME280;48659;41.622;2.276;2024-01-11T06:09:35;99985.52;;;7.21;57.27
62592;BME280;48659;41.622;2.276;2024-01-11T06:12:03;99985.59;;;7.94;57.07
62592;BME280;48659;41.622;2.276;2024-01-11T06:14:31;99993.56;;;6.50;59.68
62592;BME280;48659;41.622;2.276;2024-01-11T06:16:59;99996.40;;;6.95;61.84
62592;BME280;48659;41.622;2.276;2024-01-11T06:19:26;100000.51;;;6.93;59.37
62592;BME280;48659;41.622;2.276;2024-01-11T06:21:54;99993.43;;;6.64;58.79
62592;BME280;48659;41.622;2.276;2024-01-11T06:24:21;99991.32;;;7.48;57.23
62592;BME280;48659;41.622;2.276;2024-01-11T06:26:49;99992.50;;;6.72;58.25
62592;BME280;48659;41.622;2.276;2024-01-11T06:29:16;99990.61;;;5.24;63.31
62592;BME280;48659;41.622;2.276;2024-01-11T06:31:43;99988.75;;;4.16;63.85
62592;BME280;48659;41.622;2.276;2024-01-11T06:34:10;99995.54;;;6.27;60.90
62592;BME280;48659;41.622;2.276;2024-01-11T06:36:38;99996.61;;;3.37;64.52
62592;BME280;48659;41.622;2.276;2024-01-11T06:39:06;100002.36;;;6.36;59.53
62592;BME280;48659;41.622;2.276;2024-01-11T06:41:35;100003.73;;;6.33;58.18
62592;BME280;48659;41.622;2.276;2024-01-11T06:44:02;100004.73;;;4.73;61.64
62592;BME280;48659;41.622;2.276;2024-01-11T06:46:30;100008.34;;;4.77;64.66
62592;BME280;48659;41.622;2.276;2024-01-11T06:48:57;100012.78;;;5.64;64.93
62592;BME280;48659;41.622;2.276;2024-01-11T06:51:25;100017.74;;;5.38;62.98
62592;BME280;48659;41.622;2.276;2024-01-11T06:53:52;100021.23;;;6.02;63.90
62592;BME280;48659;41.622;2.276;2024-01-11T06:56:20;100026.52;;;6.62;60.82
62592;BME280;48659;41.622;2.276;2024-01-11T06:58:47;100028.83;;;3.67;66.24
62592;BME280;48659;41.622;2.276;2024-01-11T07:01:15;100029.62;;;5.58;64.28
62592;BME280;48659;41.622;2.276;2024-01-11T07:03:42;100032.61;;;3.43;67.90
62592;BME280;48659;41.622;2.276;2024-01-11T07:06:09;100034.64;;;5.51;65.91
62592;BME280;48659;41.622;2.276;2024-01-11T07:08:37;100032.03;;;5.49;64.32
62592;BME280;48659;41.622;2.276;2024-01-11T07:11:05;100037.79;;;5.82;63.62
62592;BME280;48659;41.622;2.276;2024-01-11T07:13:32;100040.38;;;5.39;62.18
62592;BME280;48659;41.622;2.276;2024-01-11T07:16:00;100037.54;;;5.51;63.20
62592;BME280;48659;41.622;2.276;2024-01-11T07:18:28;100037.44;;;5.87;63.63
62592;BME280;48659;41.622;2.276;2024-01-11T07:20:57;100035.49;;;5.49;63.10
62592;BME280;48659;41.622;2.276;2024-01-11T07:23:25;100039.96;;;6.23;61.14
62592;BME280;48659;41.622;2.276;2024-01-11T07:25:52;100042.16;;;5.81;61.08
62592;BME280;48659;41.622;2.276;2024-01-11T07:28:20;100046.83;;;6.81;59.68
62592;BME280;48659;41.622;2.276;2024-01-11T07:30:47;100051.72;;;6.17;58.64
62592;BME280;48659;41.622;2.276;2024-01-11T07:33:15;100052.80;;;5.57;60.19
62592;BME280;48659;41.622;2.276;2024-01-11T07:35:42;100054.26;;;6.69;59.24
62592;BME280;48659;41.622;2.276;2024-01-11T07:38:10;100050.95;;;6.27;59.86
62592;BME280;48659;41.622;2.276;2024-01-11T07:40:39;100049.83;;;5.47;60.98
62592;BME280;48659;41.622;2.276;2024-01-11T07:43:06;100048.97;;;6.27;59.45
62592;BME280;48659;41.622;2.276;2024-01-11T07:45:34;100054.54;;;6.23;58.43
62592;BME280;48659;41.622;2.276;2024-01-11T07:48:02;100053.63;;;5.21;62.88
62592;BME280;48659;41.622;2.276;2024-01-11T07:50:39;100046.33;;;5.00;62.04
62592;BME280;48659;41.622;2.276;2024-01-11T07:53:07;100051.56;;;6.81;59.15
62592;BME280;48659;41.622;2.276;2024-01-11T07:55:36;100048.95;;;4.44;61.24
62592;BME280;48659;41.622;2.276;2024-01-11T07:58:03;100054.93;;;5.10;63.47
62592;BME280;48659;41.622;2.276;2024-01-11T08:00:31;100060.44;;;5.50;62.72
62592;BME280;48659;41.622;2.276;2024-01-11T08:02:58;100061.54;;;6.25;59.85
62592;BME280;48659;41.622;2.276;2024-01-11T08:05:27;100066.13;;;7.23;58.48
62592;BME280;48659;41.622;2.276;2024-01-11T08:07:55;100063.32;;;7.93;56.89
62592;BME280;48659;41.622;2.276;2024-01-11T08:10:22;100061.00;;;7.42;56.88
62592;BME280;48659;41.622;2.276;2024-01-11T08:12:50;100063.18;;;6.92;56.22
62592;BME280;48659;41.622;2.276;2024-01-11T08:15:17;100065.84;;;7.49;55.95
62592;BME280;48659;41.622;2.276;2024-01-11T08:17:45;100069.51;;;7.38;56.19
62592;BME280;48659;41.622;2.276;2024-01-11T08:20:12;100068.06;;;7.51;55.40
62592;BME280;48659;41.622;2.276;2024-01-11T08:22:40;100073.02;;;6.49;55.73
62592;BME280;48659;41.622;2.276;2024-01-11T08:25:09;100068.90;;;7.70;55.00
62592;BME280;48659;41.622;2.276;2024-01-11T08:27:37;100078.48;;;7.46;54.38
62592;BME280;48659;41.622;2.276;2024-01-11T08:30:06;100078.41;;;7.98;54.88
62592;BME280;48659;41.622;2.276;2024-01-11T08:32:35;100085.32;;;8.31;54.96
62592;BME280;48659;41.622;2.276;2024-01-11T08:35:03;100088.18;;;7.78;55.01
62592;BME280;48659;41.622;2.276;2024-01-11T08:37:31;100099.20;;;7.16;55.48
62592;BME280;48659;41.622;2.276;2024-01-11T08:39:58;100099.86;;;8.19;54.30
62592;BME280;48659;41.622;2.276;2024-01-11T08:42:25;100107.72;;;7.22;56.31
62592;BME280;48659;41.622;2.276;2024-01-11T08:44:53;100106.39;;;7.84;54.58
62592;BME280;48659;41.622;2.276;2024-01-11T08:47:21;100114.61;;;7.78;54.63
62592;BME280;48659;41.622;2.276;2024-01-11T08:49:48;100112.04;;;8.12;54.08
62592;BME280;48659;41.622;2.276;2024-01-11T08:52:15;100113.13;;;8.38;54.30
62592;BME280;48659;41.622;2.276;2024-01-11T08:54:43;100112.11;;;8.01;54.56
62592;BME280;48659;41.622;2.276;2024-01-11T08:57:11;100121.30;;;8.05;55.83
62592;BME280;48659;41.622;2.276;2024-01-11T08:59:38;100117.34;;;8.42;54.74
62592;BME280;48659;41.622;2.276;2024-01-11T09:02:06;100120.97;;;8.40;54.60
62592;BME280;48659;41.622;2.276;2024-01-11T09:04:34;100127.40;;;8.14;54.77
62592;BME280;48659;41.622;2.276;2024-01-11T09:07:01;100127.66;;;8.48;54.99
62592;BME280;48659;41.622;2.276;2024-01-11T09:09:28;100133.34;;;8.69;54.63
62592;BME280;48659;41.622;2.276;2024-01-11T09:11:56;100131.25;;;8.95;53.71
62592;BME280;48659;41.622;2.276;2024-01-11T09:14:24;100128.31;;;8.90;53.58
62592;BME280;48659;41.622;2.276;2024-01-11T09:16:52;100140.16;;;6.37;57.09
62592;BME280;48659;41.622;2.276;2024-01-11T09:19:19;100134.48;;;8.35;54.69
62592;BME280;48659;41.622;2.276;2024-01-11T09:21:47;100133.58;;;8.05;54.93
62592;BME280;48659;41.622;2.276;2024-01-11T09:24:15;100139.57;;;8.03;55.24
62592;BME280;48659;41.622;2.276;2024-01-11T09:26:42;100137.24;;;7.42;55.90
62592;BME280;48659;41.622;2.276;2024-01-11T09:29:10;100142.10;;;8.92;54.99
62592;BME280;48659;41.622;2.276;2024-01-11T09:31:37;100144.48;;;8.45;54.95
62592;BME280;48659;41.622;2.276;2024-01-11T09:34:05;100144.07;;;8.59;54.64
62592;BME280;48659;41.622;2.276;2024-01-11T09:36:36;100143.59;;;7.69;54.39
62592;BME280;48659;41.622;2.276;2024-01-11T09:39:03;100146.15;;;8.73;53.05
62592;BME280;48659;41.622;2.276;2024-01-11T09:41:32;100148.90;;;9.16;51.93
62592;BME280;48659;41.622;2.276;2024-01-11T09:44:04;100153.25;;;9.45;52.70
62592;BME280;48659;41.622;2.276;2024-01-11T09:46:32;100155.51;;;9.33;52.36
62592;BME280;48659;41.622;2.276;2024-01-11T09:49:01;100154.23;;;9.09;52.27
62592;BME280;48659;41.622;2.276;2024-01-11T09:51:40;100158.76;;;8.73;52.49
62592;BME280;48659;41.622;2.276;2024-01-11T09:54:10;100154.80;;;9.53;52.73
62592;BME280;48659;41.622;2.276;2024-01-11T09:56:38;100158.63;;;8.67;52.91
62592;BME280;48659;41.622;2.276;2024-01-11T09:59:07;100154.34;;;9.69;52.46
62592;BME280;48659;41.622;2.276;2024-01-11T10:01:35;100155.45;;;9.81;52.11
62592;BME280;48659;41.622;2.276;2024-01-11T10:04:03;100155.24;;;8.41;55.74
62592;BME280;48659;41.622;2.276;2024-01-11T10:06:37;100151.76;;;9.07;52.71
62592;BME280;48659;41.622;2.276;2024-01-11T10:09:06;100155.21;;;9.27;52.93
62592;BME280;48659;41.622;2.276;2024-01-11T10:11:33;100153.13;;;9.67;51.93
62592;BME280;48659;41.622;2.276;2024-01-11T10:14:01;100154.10;;;10.29;51.16
62592;BME280;48659;41.622;2.276;2024-01-11T10:16:36;100154.87;;;9.80;51.02
62592;BME280;48659;41.622;2.276;2024-01-11T10:19:03;100152.13;;;10.01;51.53
62592;BME280;48659;41.622;2.276;2024-01-11T10:21:39;100151.69;;;10.21;51.00
62592;BME280;48659;41.622;2.276;2024-01-11T10:24:06;100152.16;;;10.80;50.51
62592;BME280;48659;41.622;2.276;2024-01-11T10:26:33;100150.53;;;10.35;50.48
62592;BME280;48659;41.622;2.276;2024-01-11T10:29:00;100154.63;;;10.33;51.79
62592;BME280;48659;41.622;2.276;2024-01-11T10:31:43;100156.49;;;10.78;51.07
62592;BME280;48659;41.622;2.276;2024-01-11T10:34:11;100155.63;;;10.26;51.02
62592;BME280;48659;41.622;2.276;2024-01-11T10:36:39;100156.88;;;10.73;50.54
62592;BME280;48659;41.622;2.276;2024-01-11T10:39:08;100157.29;;;10.51;50.93
62592;BME280;48659;41.622;2.276;2024-01-11T10:41:40;100158.50;;;10.45;50.46
62592;BME280;48659;41.622;2.276;2024-01-11T10:44:17;100155.54;;;10.39;50.28
62592;BME280;48659;41.622;2.276;2024-01-11T10:46:46;100152.32;;;10.56;50.86
62592;BME280;48659;41.622;2.276;2024-01-11T10:49:17;100147.69;;;10.64;50.29
62592;BME280;48659;41.622;2.276;2024-01-11T10:51:53;100147.43;;;10.87;49.47
62592;BME280;48659;41.622;2.276;2024-01-11T10:54:22;100140.59;;;10.23;50.57
62592;BME280;48659;41.622;2.276;2024-01-11T10:56:50;100139.60;;;10.47;50.10
62592;BME280;48659;41.622;2.276;2024-01-11T10:59:20;100141.23;;;11.21;48.45
62592;BME280;48659;41.622;2.276;2024-01-11T11:01:48;100136.67;;;10.72;49.20
62592;BME280;48659;41.622;2.276;2024-01-11T11:04:16;100135.89;;;10.51;48.69
62592;BME280;48659;41.622;2.276;2024-01-11T11:06:44;100137.23;;;9.26;51.03
62592;BME280;48659;41.622;2.276;2024-01-11T11:09:14;100133.59;;;10.34;49.92
62592;BME280;48659;41.622;2.276;2024-01-11T11:11:43;100131.79;;;10.24;49.05
62592;BME280;48659;41.622;2.276;2024-01-11T11:14:14;100131.11;;;11.22;47.99
62592;BME280;48659;41.622;2.276;2024-01-11T11:16:42;100131.06;;;10.47;48.07
62592;BME280;48659;41.622;2.276;2024-01-11T11:19:09;100130.48;;;11.87;47.02
62592;BME280;48659;41.622;2.276;2024-01-11T11:21:42;100133.20;;;11.55;47.01
62592;BME280;48659;41.622;2.276;2024-01-11T11:24:10;100133.17;;;12.18;48.16
62592;BME280;48659;41.622;2.276;2024-01-11T11:26:37;100131.52;;;11.25;47.06
62592;BME280;48659;41.622;2.276;2024-01-11T11:29:05;100133.85;;;10.75;48.56
62592;BME280;48659;41.622;2.276;2024-01-11T11:31:36;100132.78;;;10.79;48.18
62592;BME280;48659;41.622;2.276;2024-01-11T11:34:05;100132.70;;;11.60;46.92
62592;BME280;48659;41.622;2.276;2024-01-11T11:36:39;100125.65;;;10.07;48.32
62592;BME280;48659;41.622;2.276;2024-01-11T11:39:09;100123.50;;;11.16;48.84
62592;BME280;48659;41.622;2.276;2024-01-11T11:41:37;100122.39;;;11.48;48.18
62592;BME280;48659;41.622;2.276;2024-01-11T11:44:05;100111.69;;;11.66;47.30
62592;BME280;48659;41.622;2.276;2024-01-11T11:46:36;100109.72;;;10.45;47.46
62592;BME280;48659;41.622;2.276;2024-01-11T11:49:04;100105.43;;;11.89;46.90
62592;BME280;48659;41.622;2.276;2024-01-11T11:51:39;100100.62;;;11.56;46.19
62592;BME280;48659;41.622;2.276;2024-01-11T11:54:08;100101.16;;;10.20;48.87
62592;BME280;48659;41.622;2.276;2024-01-11T11:56:36;100101.57;;;9.24;51.16
62592;BME280;48659;41.622;2.276;2024-01-11T11:59:04;100096.32;;;9.72;50.78
62592;BME280;48659;41.622;2.276;2024-01-11T12:01:31;100093.12;;;9.66;51.86
62592;BME280;48659;41.622;2.276;2024-01-11T12:03:59;100092.91;;;9.48;53.96
62592;BME280;48659;41.622;2.276;2024-01-11T12:06:34;100094.91;;;9.06;55.72
62592;BME280;48659;41.622;2.276;2024-01-11T12:09:02;100092.86;;;9.49;53.30
62592;BME280;48659;41.622;2.276;2024-01-11T12:11:37;100091.81;;;8.41;53.85
62592;BME280;48659;41.622;2.276;2024-01-11T12:14:05;100086.55;;;9.67;52.05
62592;BME280;48659;41.622;2.276;2024-01-11T12:16:36;100088.45;;;10.06;50.29
62592;BME280;48659;41.622;2.276;2024-01-11T12:19:05;100086.17;;;9.63;51.28
62592;BME280;48659;41.622;2.276;2024-01-11T12:21:35;100083.09;;;9.27;50.78
62592;BME280;48659;41.622;2.276;2024-01-11T12:24:04;100085.88;;;10.86;49.05
62592;BME280;48659;41.622;2.276;2024-01-11T12:26:31;100086.48;;;11.09;48.49
62592;BME280;48659;41.622;2.276;2024-01-11T12:28:59;100081.36;;;11.70;47.50
62592;BME280;48659;41.622;2.276;2024-01-11T12:31:36;100083.27;;;11.11;47.33
62592;BME280;48659;41.622;2.276;2024-01-11T12:34:04;100080.49;;;12.48;45.17
62592;BME280;48659;41.622;2.276;2024-01-11T12:36:37;100083.58;;;10.13;47.19
62592;BME280;48659;41.622;2.276;2024-01-11T12:39:11;100075.86;;;11.95;46.00
62592;BME280;48659;41.622;2.276;2024-01-11T12:41:38;100072.20;;;10.18;49.10
62592;BME280;48659;41.622;2.276;2024-01-11T12:44:06;100067.17;;;11.99;46.17
62592;BME280;48659;41.622;2.276;2024-01-11T12:46:34;100071.97;;;9.79;49.06
62592;BME280;48659;41.622;2.276;2024-01-11T12:49:02;100067.35;;;9.96;51.61
62592;BME280;48659;41.622;2.276;2024-01-11T12:51:29;100063.00;;;10.04;50.99
62592;BME280;48659;41.622;2.276;2024-01-11T12:53:57;100061.37;;;9.51;51.15
62592;BME280;48659;41.622;2.276;2024-01-11T12:56:24;100063.01;;;8.90;51.47
62592;BME280;48659;41.622;2.276;2024-01-11T12:58:51;100059.36;;;9.52;49.53
62592;BME280;48659;41.622;2.276;2024-01-11T13:01:36;100057.52;;;9.75;48.92
62592;BME280;48659;41.622;2.276;2024-01-11T13:04:04;100058.11;;;8.82;48.76
62592;BME280;48659;41.622;2.276;2024-01-11T13:06:36;100060.51;;;7.90;49.00
62592;BME280;48659;41.622;2.276;2024-01-11T13:09:04;100059.59;;;8.80;48.57
62592;BME280;48659;41.622;2.276;2024-01-11T13:11:36;100061.06;;;7.89;48.50
62592;BME280;48659;41.622;2.276;2024-01-11T13:14:04;100058.12;;;9.06;47.05